Time;durP1;ratioP1;P1;durP2;ratioP2;P2;SDS_P1;SDS_P2;PMS_P1;PMS_P2;Temp;Humidity;BMP_temperature;BMP_pressure;BME280_temperature;BME280_humidity;BME280_pressure;Samples;Min_cycle;Max_cycle;Signal;HPM_P1;HPM_P2
2023/05/25 00:01:47;;;;;;;7.90;3.67;;;16.20;54.60;;;;;;5051597;28;20456;-78
2023/05/25 00:04:15;;;;;;;6.10;3.57;;;16.20;54.60;;;;;;5051160;28;20461;-78
2023/05/25 00:06:44;;;;;;;6.30;3.80;;;16.10;54.40;;;;;;5051683;28;20457;-78
2023/05/25 00:09:12;;;;;;;5.53;3.83;;;16.10;54.50;;;;;;5051597;28;20495;-78
2023/05/25 00:11:39;;;;;;;7.37;3.60;;;16.10;54.70;;;;;;5033248;28;20492;-78
2023/05/25 00:14:07;;;;;;;7.27;3.87;;;16.00;54.80;;;;;;5051193;28;20456;-78
2023/05/25 00:16:36;;;;;;;7.30;3.90;;;16.00;54.90;;;;;;5051270;28;20812;-78
2023/05/25 00:19:03;;;;;;;5.37;3.33;;;16.00;54.90;;;;;;5051209;28;20457;-79
2023/05/25 00:21:32;;;;;;;7.40;3.40;;;15.90;54.90;;;;;;5051125;28;20458;-79
2023/05/25 00:24:00;;;;;;;9.80;4.10;;;15.90;55.00;;;;;;5051129;28;20857;-78
2023/05/25 00:26:28;;;;;;;7.70;3.83;;;15.90;55.20;;;;;;5051184;28;20479;-79
2023/05/25 00:28:55;;;;;;;5.47;3.30;;;15.90;55.40;;;;;;4999379;28;20460;-78
2023/05/25 00:31:22;;;;;;;6.57;3.80;;;15.80;55.50;;;;;;5051106;28;20582;-79
2023/05/25 00:33:49;;;;;;;5.83;3.40;;;15.80;55.70;;;;;;5050673;28;20852;-78
2023/05/25 00:36:16;;;;;;;8.83;3.60;;;15.70;55.70;;;;;;5051312;28;20495;-79
2023/05/25 00:38:44;;;;;;;6.27;3.23;;;15.70;55.80;;;;;;5052321;28;20452;-78
2023/05/25 00:41:11;;;;;;;5.23;3.40;;;15.60;55.90;;;;;;5055121;28;20535;-78
2023/05/25 00:43:40;;;;;;;6.50;3.73;;;15.60;56.30;;;;;;5054968;28;20456;-76
2023/05/25 00:46:07;;;;;;;7.27;4.23;;;15.50;56.40;;;;;;5054819;28;20470;-77
2023/05/25 00:48:34;;;;;;;8.43;3.97;;;15.50;56.60;;;;;;5055072;28;20818;-77
2023/05/25 00:51:02;;;;;;;5.27;3.47;;;15.40;56.70;;;;;;5054847;28;20575;-77
2023/05/25 00:53:29;;;;;;;7.53;3.60;;;15.40;56.80;;;;;;5054501;28;20460;-78
2023/05/25 00:56:02;;;;;;;8.37;3.90;;;15.40;57.00;;;;;;5055053;28;20460;-77
2023/05/25 00:58:33;;;;;;;5.33;3.43;;;15.30;57.20;;;;;;5054574;28;20459;-78
2023/05/25 01:01:05;;;;;;;7.40;3.87;;;15.30;57.30;;;;;;5055015;28;20803;-77
2023/05/25 01:03:36;;;;;;;6.17;3.70;;;15.20;57.40;;;;;;5054880;28;20828;-77
2023/05/25 01:06:07;;;;;;;6.83;3.70;;;15.20;57.50;;;;;;5054493;28;20476;-77
2023/05/25 01:08:35;;;;;;;7.00;3.93;;;15.10;57.60;;;;;;5054353;28;20531;-77
2023/05/25 01:11:03;;;;;;;7.70;3.77;;;15.10;58.20;;;;;;5054389;28;20492;-77
2023/05/25 01:13:33;;;;;;;7.93;3.73;;;15.00;57.60;;;;;;5054641;28;20452;-76
2023/05/25 01:16:02;;;;;;;6.13;3.60;;;15.00;58.00;;;;;;5054465;28;20444;-76
2023/05/25 01:18:28;;;;;;;7.93;3.50;;;14.90;58.00;;;;;;5054186;28;20948;-77
2023/05/25 01:21:11;;;;;;;5.00;3.50;;;14.90;58.10;;;;;;5054124;28;20963;-76
2023/05/25 01:23:46;;;;;;;5.97;3.47;;;14.80;58.30;;;;;;5053722;28;20460;-78
2023/05/25 01:26:16;;;;;;;5.73;3.87;;;14.80;58.20;;;;;;5054164;28;20924;-78
2023/05/25 01:28:50;;;;;;;6.70;3.57;;;14.80;58.20;;;;;;5054609;28;20440;-76
2023/05/25 01:31:20;;;;;;;4.93;3.23;;;14.70;58.10;;;;;;5054007;28;20483;-76
2023/05/25 01:33:49;;;;;;;6.07;4.10;;;14.70;58.20;;;;;;5036117;28;20482;-76
2023/05/25 01:36:17;;;;;;;6.30;3.60;;;14.70;58.30;;;;;;5072753;28;20455;-76
2023/05/25 01:38:44;;;;;;;5.77;3.73;;;14.60;58.50;;;;;;5021722;28;20833;-76
2023/05/25 01:41:11;;;;;;;5.57;3.83;;;14.60;58.60;;;;;;5074007;28;20474;-76
2023/05/25 01:43:38;;;;;;;10.03;4.03;;;14.60;58.70;;;;;;5073907;28;20451;-77
2023/05/25 01:46:15;;;;;;;7.27;3.63;;;14.60;58.80;;;;;;5073644;28;20564;-77
2023/05/25 01:48:49;;;;;;;6.23;4.17;;;14.50;59.00;;;;;;5073750;28;20490;-78
2023/05/25 01:51:26;;;;;;;4.43;3.43;;;14.50;59.00;;;;;;5055685;28;20557;-79
2023/05/25 01:53:55;;;;;;;7.30;3.70;;;14.50;59.20;;;;;;5073384;28;20451;-78
2023/05/25 01:56:24;;;;;;;7.30;3.50;;;14.50;59.20;;;;;;5073716;28;20447;-77
2023/05/25 01:58:51;;;;;;;7.77;3.67;;;14.50;59.00;;;;;;5073876;28;20530;-76
2023/05/25 02:01:20;;;;;;;8.00;4.13;;;14.50;58.90;;;;;;5073491;28;20838;-77
2023/05/25 02:03:48;;;;;;;8.53;3.63;;;14.40;58.90;;;;;;5073422;28;20461;-77
2023/05/25 02:06:16;;;;;;;7.37;3.80;;;14.40;59.60;;;;;;5073029;28;20485;-78
2023/05/25 02:08:44;;;;;;;8.13;3.80;;;14.40;59.00;;;;;;5073558;28;20459;-78
2023/05/25 02:11:13;;;;;;;7.23;3.80;;;14.40;59.00;;;;;;5073478;28;20479;-78
2023/05/25 02:13:39;;;;;;;10.43;3.90;;;14.40;59.00;;;;;;5073133;28;20942;-77
2023/05/25 02:16:07;;;;;;;7.10;3.53;;;14.40;59.10;;;;;;5073111;28;20518;-78
2023/05/25 02:18:34;;;;;;;5.47;3.50;;;14.30;59.00;;;;;;5073282;28;20432;-77
2023/05/25 02:21:01;;;;;;;7.37;3.70;;;14.30;59.10;;;;;;5072985;28;20513;-78
2023/05/25 02:23:28;;;;;;;7.40;3.90;;;14.30;59.20;;;;;;5072877;28;20955;-76
2023/05/25 02:25:57;;;;;;;6.77;3.77;;;14.40;59.20;;;;;;5072824;28;20453;-79
2023/05/25 02:28:25;;;;;;;6.50;3.93;;;14.30;59.20;;;;;;5072977;28;20455;-77
2023/05/25 02:30:52;;;;;;;4.93;3.83;;;14.30;59.30;;;;;;5072864;28;20489;-76
2023/05/25 02:33:19;;;;;;;6.03;4.03;;;14.30;59.30;;;;;;5037327;28;20455;-77
2023/05/25 02:35:46;;;;;;;4.93;4.00;;;14.30;59.30;;;;;;5072472;28;20458;-77
2023/05/25 02:38:14;;;;;;;7.03;3.57;;;14.30;59.30;;;;;;5072549;28;20504;-77
2023/05/25 02:40:40;;;;;;;9.67;3.87;;;14.30;59.30;;;;;;5072944;28;20447;-76
2023/05/25 02:43:09;;;;;;;10.60;3.97;;;14.20;59.20;;;;;;5072659;28;20451;-76
2023/05/25 02:45:35;;;;;;;6.50;4.27;;;14.20;59.30;;;;;;5072352;28;20550;-78
2023/05/25 02:48:02;;;;;;;8.23;4.60;;;14.20;59.40;;;;;;5072691;28;20454;-77
2023/05/25 02:50:29;;;;;;;5.47;3.70;;;14.20;59.50;;;;;;5054463;28;20475;-76
2023/05/25 02:52:56;;;;;;;7.90;4.33;;;14.20;59.60;;;;;;5072855;28;20451;-77
2023/05/25 02:55:24;;;;;;;6.47;3.10;;;14.10;59.60;;;;;;5064126;28;20458;-77
2023/05/25 02:57:51;;;;;;;6.23;3.97;;;14.10;59.70;;;;;;5072548;28;20483;-76
2023/05/25 03:00:20;;;;;;;6.23;3.77;;;14.10;59.70;;;;;;5072643;28;20572;-78
2023/05/25 03:02:47;;;;;;;9.80;3.73;;;14.10;59.90;;;;;;5072189;28;20447;-77
2023/05/25 03:05:16;;;;;;;5.90;3.33;;;14.00;59.70;;;;;;5071896;28;20459;-78
2023/05/25 03:07:43;;;;;;;8.00;4.57;;;14.00;59.90;;;;;;5072279;28;20463;-79
2023/05/25 03:10:10;;;;;;;6.87;3.67;;;14.00;59.90;;;;;;5072030;28;20944;-78
2023/05/25 03:12:37;;;;;;;7.40;3.83;;;14.00;60.00;;;;;;5072253;28;20541;-78
2023/05/25 03:15:04;;;;;;;6.83;3.83;;;14.00;60.20;;;;;;5072411;28;20451;-78
2023/05/25 03:17:32;;;;;;;9.30;4.20;;;14.00;60.20;;;;;;5072307;28;20530;-77
2023/05/25 03:19:59;;;;;;;7.87;4.07;;;14.00;60.10;;;;;;5071425;28;20482;-78
2023/05/25 03:22:26;;;;;;;4.13;3.73;;;14.00;60.20;;;;;;5072707;28;20469;-77
2023/05/25 03:24:53;;;;;;;8.50;3.90;;;14.00;60.20;;;;;;5073073;28;20475;-77
2023/05/25 03:27:20;;;;;;;7.07;4.13;;;14.00;60.30;;;;;;5072947;28;20483;-77
2023/05/25 03:29:49;;;;;;;7.17;3.73;;;14.00;60.30;;;;;;5073407;28;20790;-77
2023/05/25 03:32:16;;;;;;;7.47;3.67;;;13.90;60.30;;;;;;5072617;28;20890;-77
2023/05/25 03:34:44;;;;;;;5.47;3.57;;;13.90;60.30;;;;;;5072173;28;20983;-78
2023/05/25 03:37:11;;;;;;;8.40;4.30;;;13.90;60.30;;;;;;5021123;28;20447;-78
2023/05/25 03:39:38;;;;;;;6.43;3.30;;;13.80;60.30;;;;;;5072907;28;20956;-78
2023/05/25 03:42:06;;;;;;;5.37;3.83;;;13.80;60.40;;;;;;5073023;28;20810;-79
2023/05/25 03:44:33;;;;;;;7.47;4.17;;;13.80;60.50;;;;;;5072094;28;20797;-78
2023/05/25 03:46:59;;;;;;;6.10;4.03;;;13.80;60.30;;;;;;5072946;28;20467;-77
2023/05/25 03:49:26;;;;;;;6.17;4.13;;;13.80;60.30;;;;;;5072234;28;20447;-78
2023/05/25 03:51:55;;;;;;;6.37;4.10;;;13.80;60.30;;;;;;5072679;28;20482;-78
2023/05/25 03:54:21;;;;;;;6.30;4.53;;;13.80;60.50;;;;;;5072696;28;20503;-79
2023/05/25 03:56:48;;;;;;;6.73;3.80;;;13.80;60.50;;;;;;5072546;28;20459;-79
2023/05/25 03:59:15;;;;;;;6.47;3.97;;;13.80;60.70;;;;;;5054436;28;20467;-78
2023/05/25 04:01:42;;;;;;;6.57;3.70;;;13.80;60.80;;;;;;5072341;28;20458;-78
2023/05/25 04:04:09;;;;;;;6.17;4.50;;;13.80;60.60;;;;;;5072572;28;20490;-78
2023/05/25 04:06:36;;;;;;;9.73;4.53;;;13.80;60.80;;;;;;5072038;28;20518;-78
2023/05/25 04:09:05;;;;;;;7.70;4.00;;;13.80;60.90;;;;;;5072589;28;20447;-79
2023/05/25 04:11:32;;;;;;;12.23;4.97;;;13.80;61.10;;;;;;5072356;28;20581;-78
2023/05/25 04:13:59;;;;;;;5.90;3.83;;;13.80;61.00;;;;;;5076005;28;20534;-79
2023/05/25 04:16:26;;;;;;;6.30;3.63;;;13.80;61.30;;;;;;5079154;28;20455;-78
2023/05/25 04:18:53;;;;;;;6.73;4.00;;;13.80;61.50;;;;;;5078754;28;20474;-78
2023/05/25 04:21:20;;;;;;;6.43;4.50;;;13.80;61.60;;;;;;5078841;28;20530;-78
2023/05/25 04:23:47;;;;;;;8.90;4.50;;;13.80;61.80;;;;;;5079154;28;20852;-78
2023/05/25 04:26:15;;;;;;;7.87;4.20;;;13.80;62.20;;;;;;5078761;28;20830;-78
2023/05/25 04:28:42;;;;;;;12.40;5.00;;;13.80;62.50;;;;;;5079191;28;20446;-78
2023/05/25 04:31:11;;;;;;;12.30;4.57;;;13.90;63.20;;;;;;5077889;28;20451;-78
2023/05/25 04:33:39;;;;;;;8.53;4.77;;;13.90;63.50;;;;;;5078782;28;20466;-79
2023/05/25 04:36:07;;;;;;;8.20;4.73;;;13.90;63.70;;;;;;5078606;28;20462;-77
2023/05/25 04:38:34;;;;;;;6.40;4.33;;;13.90;63.80;;;;;;5079301;28;20479;-78
2023/05/25 04:41:01;;;;;;;9.20;4.70;;;13.90;63.80;;;;;;5078425;28;20451;-78
2023/05/25 04:43:30;;;;;;;9.47;4.47;;;13.90;63.90;;;;;;5078578;28;20447;-76
2023/05/25 04:45:58;;;;;;;11.13;4.57;;;13.90;64.30;;;;;;5078373;28;20819;-77
2023/05/25 04:48:27;;;;;;;9.20;4.60;;;13.90;64.50;;;;;;5078618;28;20466;-79
2023/05/25 04:50:54;;;;;;;9.07;4.60;;;14.00;64.50;;;;;;5078193;28;21048;-79
2023/05/25 04:53:22;;;;;;;15.20;6.13;;;14.00;64.50;;;;;;5079084;28;20466;-77
2023/05/25 04:55:50;;;;;;;10.10;5.50;;;14.10;65.30;;;;;;5078509;28;20466;-79
2023/05/25 04:58:18;;;;;;;10.20;4.50;;;14.10;65.60;;;;;;5078488;28;20482;-79
2023/05/25 05:00:46;;;;;;;9.87;4.80;;;14.20;65.40;;;;;;5078833;28;20447;-80
2023/05/25 05:03:13;;;;;;;12.87;5.17;;;14.20;64.80;;;;;;5078854;28;20447;-79
2023/05/25 05:05:40;;;;;;;15.20;5.10;;;14.30;65.60;;;;;;5078563;28;20554;-79
2023/05/25 05:08:07;;;;;;;5.57;4.00;;;14.30;65.00;;;;;;5078735;28;20447;-78
2023/05/25 05:10:34;;;;;;;7.53;5.03;;;14.40;64.50;;;;;;5079035;28;20485;-80
2023/05/25 05:13:01;;;;;;;8.37;4.17;;;14.40;64.20;;;;;;5060243;28;20479;-76
2023/05/25 05:15:28;;;;;;;7.17;3.60;;;14.50;64.20;;;;;;5078307;28;20475;-80
2023/05/25 05:17:56;;;;;;;6.93;3.50;;;14.50;64.40;;;;;;5078629;28;20858;-78
2023/05/25 05:20:23;;;;;;;8.97;4.90;;;14.60;64.70;;;;;;5078577;28;20454;-78
2023/05/25 05:22:51;;;;;;;7.10;4.13;;;14.60;64.70;;;;;;5078416;28;20443;-80
2023/05/25 05:25:18;;;;;;;8.20;4.20;;;14.70;64.90;;;;;;5075738;28;20446;-79
2023/05/25 05:27:45;;;;;;;10.00;4.67;;;14.80;64.50;;;;;;5075124;28;20443;-79
2023/05/25 05:30:12;;;;;;;7.77;3.70;;;14.80;64.10;;;;;;5074933;28;20479;-79
2023/05/25 05:32:39;;;;;;;8.23;3.90;;;14.90;64.40;;;;;;5075143;28;20578;-80
2023/05/25 05:35:08;;;;;;;8.70;4.03;;;15.00;64.30;;;;;;5056931;28;20466;-79
2023/05/25 05:37:35;;;;;;;7.70;4.37;;;15.00;63.90;;;;;;5074888;28;20955;-79
2023/05/25 05:40:03;;;;;;;8.17;4.90;;;15.10;64.20;;;;;;5075220;28;20497;-80
2023/05/25 05:42:30;;;;;;;7.03;4.00;;;15.20;64.10;;;;;;5074858;28;20467;-79
2023/05/25 05:44:58;;;;;;;8.40;4.07;;;15.20;64.10;;;;;;5074754;28;20884;-79
2023/05/25 05:47:25;;;;;;;6.60;3.80;;;15.30;64.20;;;;;;5075112;28;20828;-80
2023/05/25 05:49:52;;;;;;;7.43;4.07;;;15.30;64.00;;;;;;5074743;28;20489;-80
2023/05/25 05:52:20;;;;;;;6.80;4.10;;;15.40;63.90;;;;;;5074531;28;20919;-79
2023/05/25 05:54:47;;;;;;;7.10;4.00;;;15.50;63.60;;;;;;5074866;28;20530;-78
2023/05/25 05:57:15;;;;;;;7.40;4.60;;;15.60;63.20;;;;;;5074375;28;20558;-80
2023/05/25 05:59:42;;;;;;;7.60;4.10;;;15.60;63.50;;;;;;5074261;28;20965;-80
2023/05/25 06:02:09;;;;;;;9.67;3.70;;;15.70;63.20;;;;;;5074349;28;20574;-80
2023/05/25 06:04:37;;;;;;;8.53;3.77;;;15.80;62.40;;;;;;5056370;28;20470;-80
2023/05/25 06:07:04;;;;;;;9.10;4.70;;;15.80;62.50;;;;;;5056642;28;20460;-78
2023/05/25 06:09:32;;;;;;;8.23;3.87;;;15.90;62.60;;;;;;5074586;28;20483;-79
2023/05/25 06:12:00;;;;;;;6.43;3.93;;;16.00;62.40;;;;;;5074049;28;20493;-80
2023/05/25 06:14:27;;;;;;;7.23;4.10;;;16.10;62.20;;;;;;5038408;28;20454;-80
2023/05/25 06:16:54;;;;;;;5.43;3.17;;;16.10;62.50;;;;;;5074291;28;20470;-79
2023/05/25 06:19:20;;;;;;;7.97;3.60;;;16.20;61.30;;;;;;5073997;28;20535;-80
2023/05/25 06:21:47;;;;;;;8.20;3.47;;;16.30;60.80;;;;;;5074125;28;20479;-80
2023/05/25 06:24:15;;;;;;;8.50;3.70;;;16.30;60.80;;;;;;5073802;28;20455;-81
2023/05/25 06:26:43;;;;;;;8.13;3.60;;;16.40;61.10;;;;;;5073741;28;20541;-80
2023/05/25 06:29:10;;;;;;;8.30;4.40;;;16.50;61.00;;;;;;5073997;28;20634;-80
2023/05/25 06:31:37;;;;;;;7.70;3.90;;;16.50;60.50;;;;;;5073862;28;20469;-80
2023/05/25 06:34:04;;;;;;;8.77;4.10;;;16.60;60.60;;;;;;5021975;28;20471;-77
2023/05/25 06:36:31;;;;;;;8.50;4.13;;;16.70;60.60;;;;;;5073249;28;20439;-78
2023/05/25 06:38:58;;;;;;;6.20;3.30;;;16.80;59.60;;;;;;5073865;28;20542;-79
2023/05/25 06:41:25;;;;;;;9.67;3.80;;;16.80;59.70;;;;;;5073775;28;20475;-79
2023/05/25 06:43:53;;;;;;;7.30;3.50;;;16.90;59.80;;;;;;5074047;28;20538;-79
2023/05/25 06:46:20;;;;;;;7.70;3.90;;;17.00;59.90;;;;;;5073431;28;21137;-79
2023/05/25 06:48:47;;;;;;;6.50;4.67;;;17.10;59.70;;;;;;5073893;28;20500;-80
2023/05/25 06:51:14;;;;;;;7.10;3.50;;;17.10;59.20;;;;;;5038364;28;20450;-80
2023/05/25 06:53:41;;;;;;;10.07;3.73;;;17.20;59.20;;;;;;5073362;28;20502;-79
2023/05/25 06:56:07;;;;;;;8.17;3.60;;;17.30;59.40;;;;;;5073148;28;20502;-79
2023/05/25 06:58:34;;;;;;;5.93;3.80;;;17.40;59.00;;;;;;5073065;28;20558;-78
2023/05/25 07:01:03;;;;;;;6.87;3.43;;;17.50;58.90;;;;;;5073404;28;20479;-79
2023/05/25 07:03:31;;;;;;;6.97;3.83;;;17.60;58.80;;;;;;5073269;28;20497;-78
2023/05/25 07:05:58;;;;;;;6.13;3.60;;;17.70;59.00;;;;;;5073202;28;20454;-79
2023/05/25 07:08:25;;;;;;;8.10;3.60;;;17.80;58.90;;;;;;5073395;28;20541;-80
2023/05/25 07:10:52;;;;;;;8.43;4.23;;;17.90;58.70;;;;;;5072875;28;20458;-78
2023/05/25 07:13:19;;;;;;;6.97;3.20;;;18.00;58.50;;;;;;5071496;28;20486;-78
2023/05/25 07:15:46;;;;;;;9.80;4.07;;;18.10;58.30;;;;;;5052937;28;20452;-77
2023/05/25 07:18:15;;;;;;;8.33;3.20;;;18.30;58.20;;;;;;5070807;28;20444;-81
2023/05/25 07:20:42;;;;;;;9.43;4.17;;;18.30;58.10;;;;;;5070887;28;20461;-78
2023/05/25 07:23:09;;;;;;;6.33;3.40;;;18.40;57.80;;;;;;5073596;28;20474;-79
2023/05/25 07:25:37;;;;;;;6.93;4.20;;;18.50;58.00;;;;;;5078449;28;20232;-76
2023/05/25 07:28:04;;;;;;;10.00;3.67;;;18.60;57.40;;;;;;5076572;28;20545;-78
2023/05/25 07:30:31;;;;;;;9.23;4.07;;;18.70;57.20;;;;;;5075700;28;20444;-76
2023/05/25 07:32:58;;;;;;;7.00;3.60;;;18.80;56.90;;;;;;5055362;28;20235;-75
2023/05/25 07:35:26;;;;;;;5.97;3.90;;;18.90;57.00;;;;;;5072271;28;20458;-76
2023/05/25 07:37:57;;;;;;;7.27;4.10;;;19.00;57.70;;;;;;5072189;28;20476;-79
2023/05/25 07:40:25;;;;;;;6.90;4.07;;;19.20;57.60;;;;;;5073315;28;20209;-79
2023/05/25 07:42:53;;;;;;;12.83;4.00;;;19.30;57.20;;;;;;5072527;28;20288;-79
2023/05/25 07:45:19;;;;;;;8.93;4.20;;;19.40;57.30;;;;;;5054863;28;20304;-80
2023/05/25 07:47:46;;;;;;;8.13;4.17;;;19.50;56.80;;;;;;5072477;28;20259;-78
2023/05/25 07:50:14;;;;;;;11.57;4.50;;;19.60;56.00;;;;;;5072815;28;20244;-79
2023/05/25 07:52:43;;;;;;;7.27;3.83;;;19.80;56.40;;;;;;5054899;28;20229;-78
2023/05/25 07:55:11;;;;;;;7.67;3.90;;;19.80;56.00;;;;;;5054439;28;20225;-78
2023/05/25 07:57:38;;;;;;;7.00;4.27;;;19.90;55.90;;;;;;5073853;28;20316;-77
2023/05/25 08:00:06;;;;;;;9.10;4.83;;;20.00;56.10;;;;;;5073153;28;20288;-78
2023/05/25 08:02:33;;;;;;;8.50;4.63;;;20.10;56.30;;;;;;5072723;28;20201;-80
2023/05/25 08:05:04;;;;;;;8.43;4.33;;;20.20;55.90;;;;;;5072884;28;20248;-80
2023/05/25 08:07:32;;;;;;;10.93;4.50;;;20.30;55.60;;;;;;5072314;28;20263;-77
2023/05/25 08:10:00;;;;;;;8.47;4.43;;;20.30;55.10;;;;;;5020729;28;20291;-79
2023/05/25 08:12:28;;;;;;;8.17;4.03;;;20.40;54.90;;;;;;5072557;28;20263;-78
2023/05/25 08:14:55;;;;;;;10.37;4.30;;;20.50;54.60;;;;;;5072456;28;20579;-81
2023/05/25 08:17:22;;;;;;;8.20;3.80;;;20.60;55.60;;;;;;5072363;28;20268;-80
2023/05/25 08:19:49;;;;;;;7.90;4.23;;;20.70;55.70;;;;;;5072342;28;20251;-81
2023/05/25 08:22:16;;;;;;;9.90;4.20;;;20.70;54.70;;;;;;5072500;28;20958;-80
2023/05/25 08:24:43;;;;;;;11.80;4.33;;;20.80;55.00;;;;;;5054369;28;20319;-78
2023/05/25 08:27:11;;;;;;;9.30;4.37;;;20.90;54.80;;;;;;5072283;28;20197;-78
2023/05/25 08:29:38;;;;;;;7.10;3.73;;;21.00;55.00;;;;;;5072628;28;20292;-79
2023/05/25 08:32:06;;;;;;;5.93;3.83;;;21.10;54.30;;;;;;5072633;28;20237;-79
2023/05/25 08:34:33;;;;;;;7.70;4.80;;;21.20;53.70;;;;;;5072557;28;20287;-79
2023/05/25 08:37:01;;;;;;;7.33;4.07;;;21.20;54.10;;;;;;5072115;28;20244;-81
2023/05/25 08:39:28;;;;;;;7.23;3.90;;;21.30;54.10;;;;;;5072390;28;20208;-78
2023/05/25 08:41:55;;;;;;;6.50;4.30;;;21.50;55.10;;;;;;5072603;28;20658;-74
2023/05/25 08:44:23;;;;;;;7.40;3.90;;;21.50;53.90;;;;;;5072108;28;20292;-79
2023/05/25 08:46:51;;;;;;;9.70;4.63;;;21.60;53.20;;;;;;5072089;28;20213;-80
2023/05/25 08:49:18;;;;;;;6.50;4.10;;;21.80;53.40;;;;;;5072009;28;20225;-80
2023/05/25 08:51:49;;;;;;;8.93;4.10;;;21.80;53.70;;;;;;5072190;28;20205;-76
2023/05/25 08:54:19;;;;;;;8.13;3.90;;;21.90;53.60;;;;;;5071982;28;20233;-79
2023/05/25 08:56:50;;;;;;;8.30;4.33;;;22.00;53.80;;;;;;5071675;28;20320;-80
2023/05/25 08:59:28;;;;;;;6.70;4.23;;;22.10;53.60;;;;;;5072558;28;20193;-76
2023/05/25 09:02:05;;;;;;;5.57;3.80;;;22.20;53.40;;;;;;5075579;28;20224;-78
2023/05/25 09:04:35;;;;;;;9.50;4.37;;;22.20;53.30;;;;;;5075850;28;20215;-76
2023/05/25 09:07:02;;;;;;;8.60;4.43;;;22.30;53.60;;;;;;5075608;28;20340;-76
2023/05/25 09:09:29;;;;;;;7.83;4.43;;;22.40;53.20;;;;;;5075459;28;20315;-80
2023/05/25 09:11:58;;;;;;;11.70;4.67;;;22.40;53.20;;;;;;5075867;28;20230;-81
2023/05/25 09:14:25;;;;;;;8.23;4.83;;;22.50;53.00;;;;;;5075445;28;20225;-75
2023/05/25 09:16:54;;;;;;;7.57;4.60;;;22.60;53.40;;;;;;5075317;28;20534;-79
2023/05/25 09:19:21;;;;;;;4.97;4.20;;;22.60;52.80;;;;;;5075312;28;20264;-78
2023/05/25 09:21:48;;;;;;;7.47;4.73;;;22.70;52.70;;;;;;5075495;28;20622;-76
2023/05/25 09:24:16;;;;;;;4.50;3.90;;;22.70;53.00;;;;;;5075453;28;20307;-80
2023/05/25 09:26:47;;;;;;;7.13;4.80;;;22.80;52.90;;;;;;5075453;28;20209;-79
2023/05/25 09:29:15;;;;;;;9.23;4.27;;;22.90;53.20;;;;;;5075502;28;20215;-78
2023/05/25 09:31:42;;;;;;;11.57;4.80;;;23.00;52.90;;;;;;5076121;28;20219;-79
2023/05/25 09:34:13;;;;;;;9.47;4.27;;;23.10;53.10;;;;;;5075527;28;20287;-80
2023/05/25 09:36:41;;;;;;;7.77;4.07;;;23.20;52.00;;;;;;5075480;28;20245;-79
2023/05/25 09:39:09;;;;;;;6.87;3.97;;;23.30;52.50;;;;;;5075769;28;20557;-78
2023/05/25 09:41:36;;;;;;;6.47;3.97;;;23.40;51.90;;;;;;5075881;28;20208;-81
2023/05/25 09:44:04;;;;;;;5.37;3.67;;;23.50;52.40;;;;;;5075679;28;20774;-77
2023/05/25 09:46:35;;;;;;;9.70;4.47;;;23.50;51.90;;;;;;5075344;28;20305;-76
2023/05/25 09:49:03;;;;;;;8.10;4.17;;;23.60;52.00;;;;;;5075764;28;20192;-79
2023/05/25 09:51:32;;;;;;;7.50;4.10;;;23.70;51.60;;;;;;5075485;28;20351;-78
2023/05/25 09:54:00;;;;;;;7.50;4.03;;;23.80;51.10;;;;;;5075628;28;20217;-80
2023/05/25 09:56:27;;;;;;;8.03;4.00;;;23.80;50.40;;;;;;5075191;28;20233;-78
2023/05/25 09:58:54;;;;;;;7.73;3.90;;;23.90;50.80;;;;;;5075552;28;20232;-79
2023/05/25 10:01:21;;;;;;;6.77;4.13;;;24.00;50.70;;;;;;5067155;28;20690;-78
2023/05/25 10:03:49;;;;;;;5.53;3.53;;;24.10;50.30;;;;;;5074990;28;20259;-79
2023/05/25 10:06:17;;;;;;;7.57;4.00;;;24.10;50.40;;;;;;5075447;28;20266;-76
2023/05/25 10:08:45;;;;;;;6.30;3.50;;;24.20;49.70;;;;;;5075089;28;20294;-80
2023/05/25 10:11:14;;;;;;;7.00;3.67;;;24.30;50.00;;;;;;5074290;28;20208;-78
2023/05/25 10:13:44;;;;;;;6.87;4.00;;;24.40;49.70;;;;;;5075265;28;20233;-79
2023/05/25 10:16:16;;;;;;;6.60;4.10;;;24.40;49.60;;;;;;5074916;28;20221;-76
2023/05/25 10:18:49;;;;;;;8.20;3.93;;;24.40;49.10;;;;;;5075153;28;20280;-80
2023/05/25 10:21:18;;;;;;;7.87;3.97;;;24.50;49.70;;;;;;5074645;28;20244;-79
2023/05/25 10:23:48;;;;;;;8.00;4.47;;;24.60;49.20;;;;;;5074950;28;20603;-78
2023/05/25 10:26:20;;;;;;;5.90;3.67;;;24.70;48.60;;;;;;5074877;28;20181;-75
2023/05/25 10:28:51;;;;;;;8.30;3.87;;;24.80;49.40;;;;;;5074823;28;20240;-75
2023/05/25 10:31:18;;;;;;;5.77;3.70;;;24.90;48.80;;;;;;5074642;28;20657;-79
2023/05/25 10:33:46;;;;;;;7.90;4.37;;;24.90;48.80;;;;;;5074298;28;20319;-76
2023/05/25 10:36:13;;;;;;;6.27;4.13;;;25.00;48.80;;;;;;5074640;28;20296;-76
2023/05/25 10:38:43;;;;;;;8.50;3.97;;;25.10;48.20;;;;;;5074722;28;20244;-79
2023/05/25 10:41:12;;;;;;;7.57;3.80;;;25.20;48.50;;;;;;5074680;28;20559;-77
2023/05/25 10:43:40;;;;;;;5.67;3.90;;;25.20;48.40;;;;;;5075077;28;20547;-78
2023/05/25 10:46:07;;;;;;;6.03;4.00;;;25.30;48.40;;;;;;5074129;28;20251;-80
2023/05/25 10:48:37;;;;;;;7.43;4.20;;;25.30;47.60;;;;;;5074326;28;20300;-81
2023/05/25 10:51:05;;;;;;;8.80;4.20;;;25.40;47.80;;;;;;5074412;28;20235;-82
2023/05/25 10:53:34;;;;;;;5.80;3.57;;;25.40;47.50;;;;;;5074138;28;20562;-74
2023/05/25 10:56:05;;;;;;;7.50;4.30;;;25.50;47.30;;;;;;5074335;28;20284;-80
2023/05/25 10:58:34;;;;;;;5.13;3.80;;;25.60;46.90;;;;;;5074449;28;20227;-77
2023/05/25 11:01:02;;;;;;;7.03;4.30;;;25.60;47.10;;;;;;5074211;28;20201;-78
2023/05/25 11:03:47;;;;;;;7.93;4.03;;;25.70;47.30;;;;;;5073893;28;20237;-79
2023/05/25 11:06:15;;;;;;;7.10;4.00;;;25.80;46.50;;;;;;5043294;28;20296;-79
2023/05/25 11:08:54;;;;;;;6.53;4.17;;;25.90;45.90;;;;;;5074244;28;20233;-80
2023/05/25 11:11:21;;;;;;;6.37;3.83;;;25.90;47.50;;;;;;5073902;28;20240;-79
2023/05/25 11:13:50;;;;;;;6.57;4.13;;;26.10;47.10;;;;;;5074189;28;20224;-80
2023/05/25 11:16:19;;;;;;;7.87;3.97;;;26.10;46.80;;;;;;5073931;28;20293;-77
2023/05/25 11:18:50;;;;;;;6.47;4.20;;;26.10;47.40;;;;;;5073850;28;20234;-79
2023/05/25 11:21:22;;;;;;;6.13;3.80;;;26.20;47.10;;;;;;5073565;28;20228;-78
2023/05/25 11:23:53;;;;;;;7.03;3.93;;;26.30;45.80;;;;;;5021746;28;20551;-77
2023/05/25 11:26:23;;;;;;;7.37;4.03;;;26.30;45.90;;;;;;5074040;28;20216;-77
2023/05/25 11:28:53;;;;;;;5.00;3.80;;;26.40;45.90;;;;;;5073978;28;20209;-76
2023/05/25 11:31:22;;;;;;;6.20;3.77;;;26.40;44.70;;;;;;5073311;28;20304;-78
2023/05/25 11:33:56;;;;;;;6.57;3.70;;;26.40;46.70;;;;;;5073468;28;20324;-79
2023/05/25 11:36:24;;;;;;;5.13;4.00;;;26.50;45.70;;;;;;5073442;28;20194;-79
2023/05/25 11:38:52;;;;;;;5.97;3.77;;;26.60;45.70;;;;;;5073452;28;20328;-80
2023/05/25 11:41:20;;;;;;;5.60;4.10;;;26.50;45.30;;;;;;5038716;28;20692;-77
2023/05/25 11:43:48;;;;;;;5.23;3.87;;;26.60;45.50;;;;;;5073569;28;20212;-75
2023/05/25 11:46:18;;;;;;;5.37;3.80;;;26.70;45.80;;;;;;5073173;28;20335;-80
2023/05/25 11:48:50;;;;;;;6.63;4.00;;;26.70;45.50;;;;;;5073367;28;20684;-81
2023/05/25 11:51:18;;;;;;;6.73;3.90;;;26.80;45.20;;;;;;5073579;28;20259;-76
2023/05/25 11:53:45;;;;;;;5.80;4.60;;;26.80;45.10;;;;;;5073156;28;20231;-79
2023/05/25 11:56:13;;;;;;;6.07;4.00;;;27.00;44.70;;;;;;5073342;28;20301;-79
2023/05/25 11:58:43;;;;;;;5.53;4.27;;;27.00;43.50;;;;;;5073158;28;20281;-77
2023/05/25 12:01:19;;;;;;;7.13;4.03;;;27.10;44.60;;;;;;5073144;28;20260;-74
2023/05/25 12:03:47;;;;;;;5.00;3.67;;;27.20;45.00;;;;;;5072971;28;20201;-76
2023/05/25 12:06:27;;;;;;;5.23;3.77;;;27.30;45.00;;;;;;5073224;28;20220;-79
2023/05/25 12:08:54;;;;;;;4.40;3.80;;;27.30;44.00;;;;;;5073215;28;20314;-78
2023/05/25 12:11:29;;;;;;;7.43;4.03;;;27.50;43.80;;;;;;5073459;28;20205;-78
2023/05/25 12:13:56;;;;;;;6.93;4.07;;;27.60;43.50;;;;;;5072800;28;20590;-79
2023/05/25 12:16:24;;;;;;;7.67;4.13;;;27.60;43.60;;;;;;5073027;28;20291;-79
2023/05/25 12:18:52;;;;;;;6.50;3.83;;;27.60;43.20;;;;;;5073328;28;20308;-75
2023/05/25 12:21:19;;;;;;;5.90;3.97;;;27.70;43.40;;;;;;5055445;28;20230;-77
2023/05/25 12:23:46;;;;;;;6.90;3.93;;;27.80;44.10;;;;;;5073286;28;20542;-75
2023/05/25 12:26:15;;;;;;;4.73;3.57;;;27.90;43.90;;;;;;5071594;28;20207;-79
2023/05/25 12:28:58;;;;;;;6.83;4.03;;;28.00;43.80;;;;;;5073156;28;20654;-78
2023/05/25 12:31:27;;;;;;;6.30;4.00;;;28.00;43.30;;;;;;5055147;28;20199;-75
2023/05/25 12:34:08;;;;;;;5.60;3.70;;;28.10;43.20;;;;;;5072795;28;20320;-80
2023/05/25 12:36:53;;;;;;;5.30;3.90;;;28.10;41.90;;;;;;5055268;28;20237;-78
2023/05/25 12:39:37;;;;;;;5.43;4.00;;;28.10;42.00;;;;;;5056868;28;20285;-78
2023/05/25 12:42:05;;;;;;;5.43;3.30;;;28.20;41.40;;;;;;5057063;28;20212;-79
2023/05/25 12:44:34;;;;;;;8.03;3.80;;;28.30;42.80;;;;;;5055618;28;20269;-79
2023/05/25 12:47:13;;;;;;;4.73;3.87;;;28.40;42.20;;;;;;5056588;28;20734;-79
2023/05/25 12:49:41;;;;;;;5.77;3.73;;;28.40;42.20;;;;;;5056938;28;20297;-79
2023/05/25 12:52:10;;;;;;;6.50;3.77;;;28.40;42.20;;;;;;5066624;28;20251;-80